Tiempo atmosférico en la estación meteorológica de El Pinar, Depósito, Santa Cruz de Tenerife (948 m.)



Fecha
DESCASC
Temp. máxima en grados centígrados (hora)
DESCASC
Temp. mínima en grados centígrados (hora)
DESCASC
Temp. media en grados centígrados
DESCASC
Racha de viento máxima en m/sg (hora)
DESCASC
Velocidad máxima media en intervalos de 10 minutos(hora)
DESCASC
Precipitaciones diarias en mm
DESCASC
Precipitaciones de 00:00 a 06:00 en mm
DESCASC
Precipitaciones de 06:00 a 12:00 en mm
DESCASC
Precipitaciones de 12:00 a 18:00 en mm
DESCASC
Precipitaciones de 18:00 a 24:00 en mm
DESCASC
14-02-2019 20 (11:50) 11.6 (03:40) 15.8 13.89 (14:20) 6.11 (20:30) 0 0 0 0 0
13-02-2019 22.7 (13:50) 12 (06:00) 17.4 11.67 (13:40) 5.56 (13:30) 0 0 0 0 0
12-02-2019 22.3 (15:10) 10.5 (05:00) 16.4 8.06 (10:30) 3.89 (10:50) 0 0 0 0 0
11-02-2019 20.1 (13:50) 13.3 (23:00) 16.7 12.5 (04:10) 4.44 (13:00) 0 0 0 0 0
10-02-2019 17.1 (13:30) 7.8 (00:00) 12.5 13.06 (11:30) 6.39 (11:00) 0 0 0 0 0
09-02-2019 18.3 (10:50) 6.3 (00:00) 12.3 5 (14:00) 2.78 (03:30) 0 0 0 0 0
08-02-2019 17.2 (10:00) 6.3 (00:00) 11.8 5 (12:30) 2.78 (12:30) 0 0 0 0 0
07-02-2019 16 (17:50) 6.3 (00:00) 11.2 8.33 (00:10) 3.33 (00:40) 0 0 0 0 0
06-02-2019 15.4 (14:30) 10.4 (00:20) 12.9 13.61 (13:10) 6.11 (13:30) 0 0 0 0 0
05-02-2019 14.7 (14:50) 11 (19:20) 12.8 11.39 (07:30) 5.56 (12:00) 0 0 0 0 0
04-02-2019 17.1 (14:00) 7.9 (00:00) 12.5 7.78 (03:20) 3.33 (13:30) 0 0 0 0 0
03-02-2019 13.2 (15:10) 7.5 (00:00) 10.3 12.5 (10:20) 5 (10:20) 0 0 0 0 0
02-02-2019 13.3 (15:10) 8.4 (00:00) 10.8 11.67 (14:30) 4.17 (22:30) 3.4 2.8 0.6 0 0
01-02-2019 16 (14:50) 6.6 (00:00) 11.3 10.83 (14:10) 3.61 (13:30) 0.2 0 0 0 0.2
31-01-2019 13.8 (13:20) 7.1 (00:00) 10.5 6.67 (13:10) 2.5 (11:50) 0 0 0 0 0
30-01-2019 15 (13:30) 7.1 (00:00) 11 9.44 (08:00) 4.44 (02:00) 0 0 0 0 0
29-01-2019 15.9 (11:40) 5.5 (00:00) 10.7 7.5 (13:50) 3.33 (13:50) 0 0 0 0 0
28-01-2019 14.2 (17:50) 6.3 (00:00) 10.3 9.17 (08:10) 3.61 (00:50) 0 0 0 0 0
27-01-2019 12.5 (14:20) 5.8 (00:00) 9.2 9.17 (22:10) 3.61 (23:10) 0.2 0.2 0 0 0
26-01-2019 12.7 (09:50) 6.8 (00:00) 9.8 5.28 (10:00) 2.5 (10:00) 7.2 0 0.2 7 0
25-01-2019 12.6 (09:50) 5.6 (00:00) 9.1 6.11 (00:30) 3.06 (09:50) 1.8 0 0 1.6 0.2
24-01-2019 10.8 (13:40) 7.8 (00:00) 9.3 9.17 (01:40) 3.33 (10:30) 2 0 0.6 1.4 0
23-01-2019 14 (14:00) 7.6 (00:00) 10.8 12.78 (10:20) 5 (10:20) 0 0 0 0 0
22-01-2019 11.8 (15:30) 7.5 (00:00) 9.7 13.61 (10:10) 5.83 (11:30) 1 0.8 0.2 0 0
21-01-2019 12 (13:30) 8.1 (00:00) 10.1 9.72 (20:00) 3.61 (09:40) 3 0.8 2.2 0 0
20-01-2019 14.6 (15:30) 7.2 (00:00) 10.9 9.44 (15:30) 3.89 (18:50) 0.4 0 0 0 0.4
19-01-2019 13.9 (15:30) 8.3 (00:00) 11.1 8.33 (01:30) 3.06 (02:40) 0 0 0 0 0

Gráficas

Temp. máximas Temp. mínimas Temp. medias Precipitaciones Rachas de viento máximas Velocidades máximas media en intervalos de 10 minutos

Datos horarios

Fecha y hora oficial Temperatura (ºC) Velocidad del viento (km/h) Dirección del viento Racha (km/h) Dirección de racha Precipitación (mm) Presión (hPa) Tendencia (hPa) Humedad (%)
2019-02-17 23:00:00 8.9 4 Noroeste 13 Noroeste 0 -- -- 50
2019-02-17 22:00:00 9.6 5 Oeste 21 Noroeste 0 -- -- 50
2019-02-17 21:00:00 9.8 3 Norte 18 Norte 0 -- -- 67
2019-02-17 20:00:00 10.1 6 Norte 23 Noroeste 0 -- -- 61
2019-02-17 19:00:00 11.6 5 Noroeste 9 Oeste 0 -- -- 60
2019-02-17 18:00:00 13.7 4 Sudoeste 18 Noroeste 0 -- -- 69
2019-02-17 17:00:00 14.4 8 Sudeste 22 Sudeste 0 -- -- 60
2019-02-17 16:00:00 14.8 9 Sudeste 21 Sudeste 0 -- -- 63
2019-02-17 15:00:00 15.4 10 Sudeste 18 Sudeste 0 -- -- 63
2019-02-17 14:00:00 14.8 9 Sudeste 19 Sudeste 0 -- -- 66
2019-02-17 13:00:00 15.3 10 Sudeste 18 Sudeste 0 -- -- 59
2019-02-17 12:00:00 15.3 10 Sur 19 Sudeste 0 -- -- 34
2019-02-17 11:00:00 15 11 Sudeste 17 Sudeste 0 -- -- 54
2019-02-17 10:00:00 14.1 8 Sudeste 13 Sudeste 0 -- -- 39
2019-02-17 09:00:00 8.7 4 Norte 9 Noroeste 0 -- -- 68
2019-02-17 08:00:00 5.1 8 Norte 13 Norte 0 -- -- 81
2019-02-17 07:00:00 5.4 7 Norte 12 Norte 0 -- -- 77
2019-02-17 06:00:00 5.9 6 Norte 13 Norte 0 -- -- 74
2019-02-17 05:00:00 6.5 6 Norte 15 Norte 0 -- -- 71
2019-02-17 04:00:00 9.1 4 Oeste 18 Nordeste 0 -- -- 57
2019-02-17 03:00:00 10.4 11 Norte 25 Norte 0 -- -- 48
2019-02-17 02:00:00 10.1 7 Norte 26 Norte 0 -- -- 51
2019-02-17 01:00:00 9.7 6 Noroeste 23 Norte 0 -- -- 56
2019-02-17 00:00:00 8.5 11 Norte 29 Norte 0 -- -- 85
2019-02-16 23:00:00 8.8 14 Norte 35 Este 0 -- -- 85
2019-02-16 22:00:00 9.6 10 Nordeste 36 Norte 0 -- -- 82
2019-02-16 21:00:00 9.7 9 Norte 36 Noroeste 0 -- -- 90
2019-02-16 20:00:00 10.4 14 Norte 36 Norte 0.4 -- -- 96
2019-02-16 19:00:00 10.3 11 Norte 40 Oeste 0.2 -- -- 91
2019-02-16 18:00:00 11.1 12 Noroeste 37 Noroeste 0 -- -- 80
2019-02-16 17:00:00 12.6 11 Noroeste 32 Noroeste 0 -- -- 78
2019-02-16 16:00:00 13.7 10 Noroeste 41 Noroeste 0 -- -- 73
2019-02-16 15:00:00 14.3 15 Noroeste 36 Oeste 0 -- -- 68
2019-02-16 14:00:00 14.3 7 Sudeste 29 Oeste 0 -- -- 61
2019-02-16 13:00:00 13.8 11 Noroeste 38 Noroeste 0 -- -- 71
2019-02-16 12:00:00 12.6 14 Noroeste 39 Noroeste 0 -- -- 73
2019-02-16 11:00:00 11.7 13 Noroeste 37 Noroeste 0 -- -- 81
2019-02-16 10:00:00 10.2 17 Noroeste 40 Noroeste 0 -- -- 93
2019-02-16 09:00:00 9.3 18 Noroeste 41 Noroeste 0.6 -- -- 96
2019-02-16 08:00:00 8.6 14 Noroeste 36 Noroeste 0.6 -- -- 97
2019-02-16 07:00:00 8.4 11 Noroeste 42 Noroeste 1.4 -- -- 95
2019-02-16 06:00:00 8 14 Noroeste 40 Noroeste 0 -- -- 94
2019-02-16 05:00:00 8.7 9 Norte 40 Nordeste 1.8 -- -- 94
2019-02-16 04:00:00 8.6 10 Norte 38 Norte 1.2 -- -- 93
2019-02-16 03:00:00 9.2 11 Norte 43 Norte 0 -- -- 88
2019-02-16 02:00:00 8.9 10 Norte 35 Nordeste 0.2 -- -- 85
2019-02-16 01:00:00 9.3 12 Norte 41 Nordeste 0 -- -- 86
2019-02-16 00:00:00 9.2 14 Nordeste 38 Nordeste 0 -- -- 83
2019-02-15 23:00:00 9.1 11 Nordeste 50 Este 0 -- -- 88
2019-02-15 22:00:00 9.2 14 Norte 49 Nordeste 0 -- -- 87
2019-02-15 21:00:00 9.3 12 Sudeste 37 Norte 0 -- -- 88
2019-02-15 20:00:00 9.1 12 Nordeste 39 Norte 0 -- -- 83
2019-02-15 19:00:00 9.2 9 Norte 35 Nordeste 0 -- -- 86
2019-02-15 18:00:00 9.4 9 Nordeste 32 Norte 0 -- -- 83
2019-02-15 17:00:00 9.7 13 Norte 39 Nordeste 0 -- -- 81
2019-02-15 16:00:00 10 9 Norte 37 Norte 0 -- -- 86
2019-02-15 15:00:00 10.6 11 Norte 41 Oeste 0.2 -- -- 82
2019-02-15 14:00:00 11 13 Noroeste 46 Norte 0 -- -- 79
2019-02-15 13:00:00 9.8 9 Norte 36 Noroeste 0.4 -- -- 87
2019-02-15 12:00:00 9.8 8 Norte 41 Norte 0 -- -- 81
2019-02-15 11:00:00 9.7 10 Nordeste 31 Nordeste 0 -- -- 80
2019-02-15 10:00:00 9.9 12 Nordeste 45 Noroeste 0 -- -- 82
2019-02-15 09:00:00 9.5 14 Noroeste 43 Noroeste 0 -- -- 84
2019-02-15 08:00:00 9 10 Noroeste 44 Oeste 0.2 -- -- 91
2019-02-15 07:00:00 9.2 20 Noroeste 45 Noroeste 0.6 -- -- 91
2019-02-15 06:00:00 9.3 19 Noroeste 46 Noroeste 0 -- -- 84
2019-02-15 05:00:00 9.3 20 Noroeste 46 Noroeste 0 -- -- 84
2019-02-15 04:00:00 10.7 15 Noroeste 40 Noroeste 0 -- -- 77
2019-02-15 03:00:00 12.6 13 Oeste 36 Oeste 0 -- -- 59
2019-02-15 02:00:00 12.9 14 Oeste 30 Oeste 0 -- -- 53
2019-02-15 01:00:00 13.1 11 Oeste 36 Oeste 0 -- -- 41
2019-02-15 00:00:00 13.7 17 Noroeste 36 Oeste 0 -- -- 49
2019-02-14 23:00:00 14.7 17 Oeste 36 Oeste 0 -- -- 17
2019-02-14 22:00:00 14.2 21 Oeste 41 Oeste 0 -- -- 24
2019-02-14 21:00:00 14.2 22 Oeste 40 Oeste 0 -- -- 38
2019-02-14 20:00:00 13.3 20 Oeste 37 Noroeste 0 -- -- 60
2019-02-14 19:00:00 14.4 12 Sudoeste 36 Oeste 0 -- -- 37
2019-02-14 18:00:00 15.6 14 Sudoeste 30 Sudoeste 0 -- -- 31
2019-02-14 17:00:00 17.2 13 Sudoeste 42 Sur 0 -- -- 28
2019-02-14 16:00:00 18.1 18 Sudoeste 45 Sudoeste 0 -- -- 31
2019-02-14 15:00:00 18.5 19 Sudoeste 50 Sur 0 -- -- 33
2019-02-14 14:00:00 18.8 18 Sudoeste 38 Sudoeste 0 -- -- 31
2019-02-14 13:00:00 18.9 16 Sudoeste 41 Sur 0 -- -- 30
2019-02-14 12:00:00 20 19 Sur 48 Sur 0 -- -- 23
2019-02-14 11:00:00 19.7 13 Sudoeste 43 Sur 0 -- -- 18
2019-02-14 10:00:00 19.5 11 Sudoeste 33 Sur 0 -- -- 16
2019-02-14 09:00:00 18.3 8 Sudoeste 18 Sur 0 -- -- 12
2019-02-14 08:00:00 15.6 6 Oeste 16 Oeste 0 -- -- 12
2019-02-14 07:00:00 15.4 12 Oeste 18 Oeste 0 -- -- 12
2019-02-14 06:00:00 15.7 7 Sudoeste 12 Sudoeste 0 -- -- 11
2019-02-14 05:00:00 13.9 6 Oeste 13 Oeste 0 -- -- 12
2019-02-14 04:00:00 11.7 6 Noroeste 10 Noroeste 0 -- -- 16
2019-02-14 03:00:00 12.1 7 Noroeste 11 Oeste 0 -- -- 14
2019-02-14 02:00:00 12.6 7 Noroeste 14 Oeste 0 -- -- 14
2019-02-14 01:00:00 14 8 Oeste 20 Oeste 0 -- -- 11
2019-02-14 00:00:00 15.9 11 Oeste 18 Oeste 0 -- -- 8
2019-02-13 23:00:00 16.5 9 Oeste 16 Oeste 0 -- -- 7
2019-02-13 22:00:00 16.9 6 Oeste 18 Noroeste 0 -- -- 8
2019-02-13 21:00:00 17.1 7 Oeste 15 Sudoeste 0 -- -- 8
2019-02-13 20:00:00 17.1 8 Oeste 19 Sudoeste 0 -- -- 8
2019-02-13 19:00:00 17.7 7 Sudoeste 22 Sur 0 -- -- 9
2019-02-13 18:00:00 20.6 9 Sudoeste 27 Sur 0 -- -- 8
2019-02-13 17:00:00 21.8 13 Sur 32 Sudoeste 0 -- -- 8
2019-02-13 16:00:00 22.2 14 Sur 35 Sur 0 -- -- 10
2019-02-13 15:00:00 22 14 Sur 42 Sur 0 -- -- 10
2019-02-13 14:00:00 22.4 18 Sur 42 Sur 0 -- -- 10
2019-02-13 13:00:00 22.1 13 Sudeste 27 Sur 0 -- -- 10
2019-02-13 12:00:00 21.9 9 Sudeste 19 Sur 0 -- -- 9
2019-02-13 11:00:00 20.1 8 Este 27 Sudeste 0 -- -- 15
2019-02-13 10:00:00 18.9 11 Este 30 Este 0 -- -- 16
2019-02-13 09:00:00 17.4 8 Este 27 Sudeste 0 -- -- 16
2019-02-13 08:00:00 14.7 6 Nordeste 27 Sudeste 0 -- -- 18
2019-02-13 07:00:00 14.7 7 Este 20 Nordeste 0 -- -- 15
2019-02-13 06:00:00 12 5 Nordeste 11 Este 0 -- -- 19
2019-02-13 05:00:00 13.2 5 Nordeste 14 Nordeste 0 -- -- 16
2019-02-13 04:00:00 13.3 4 Nordeste 16 Nordeste 0 -- -- 16
2019-02-13 03:00:00 13 5 Nordeste 13 Nordeste 0 -- -- 17
2019-02-13 02:00:00 13 5 Norte 13 Nordeste 0 -- -- 17
2019-02-13 01:00:00 13.7 4 Nordeste 11 Norte 0 -- -- 16
2019-02-13 00:00:00 13.3 5 Norte 12 Norte 0 -- -- 17
2019-02-12 23:00:00 13.3 5 Norte 13 Noroeste 0 -- -- 18
2019-02-12 22:00:00 13.2 5 Norte 16 Norte 0 -- -- 18
2019-02-12 21:00:00 13.4 5 Norte 12 Noroeste 0 -- -- 20
2019-02-12 20:00:00 13.9 6 Norte 12 Norte 0 -- -- 19
2019-02-12 19:00:00 16.6 5 Norte 9 Norte 0 -- -- 18
2019-02-12 18:00:00 20.3 4 Este 10 Este 0 -- -- 10
2019-02-12 17:00:00 21.2 6 Este 15 Sudeste 0 -- -- 11
2019-02-12 16:00:00 21.6 7 Este 16 Sudeste 0 -- -- 10
2019-02-12 15:00:00 22.2 6 Sudeste 17 Sudeste 0 -- -- 12
2019-02-12 14:00:00 20.8 5 Este 15 Norte 0 -- -- 16
2019-02-12 13:00:00 19.8 7 Nordeste 19 Este 0 -- -- 23
2019-02-12 12:00:00 19.4 10 Este 24 Sudeste 0 -- -- 21
2019-02-12 11:00:00 18.4 13 Este 29 Sudeste 0 -- -- 20
2019-02-12 10:00:00 18.2 11 Este 21 Este 0 -- -- 20
2019-02-12 09:00:00 16.7 7 Nordeste 22 Nordeste 0 -- -- 21
2019-02-12 08:00:00 13.7 8 Nordeste 19 Nordeste 0 -- -- 22
2019-02-12 07:00:00 12.2 7 Nordeste 18 Nordeste 0 -- -- 24
2019-02-12 06:00:00 11.9 5 Nordeste 14 Nordeste 0 -- -- 22
2019-02-12 05:00:00 10.5 6 Norte 17 Norte 0 -- -- 28
2019-02-12 04:00:00 11.4 6 Norte 14 Norte 0 -- -- 24
2019-02-12 03:00:00 12.6 5 Norte 15 Norte 0 -- -- 21
2019-02-12 02:00:00 13.5 5 Nordeste 17 Este 0 -- -- 19
2019-02-12 01:00:00 12.6 5 Norte 14 Nordeste 0 -- -- 22
2019-02-12 00:00:00 13.3 6 Norte 17 Este 0 -- -- 19
2019-02-11 23:00:00 13.3 5 Nordeste 15 Este 0 -- -- 19
2019-02-11 22:00:00 14.5 5 Nordeste 14 Nordeste 0 -- -- 17
2019-02-11 21:00:00 14.2 6 Nordeste 14 Norte 0 -- -- 18
2019-02-11 20:00:00 13.8 5 Norte 13 Este 0 -- -- 20
2019-02-11 19:00:00 16.6 5 Nordeste 15 Este 0 -- -- 16
2019-02-11 18:00:00 18.4 6 Este 21 Sudeste 0 -- -- 14
2019-02-11 17:00:00 19.2 9 Este 30 Sudeste 0 -- -- 15
2019-02-11 16:00:00 19.4 12 Sudeste 31 Sudeste 0 -- -- 15
2019-02-11 15:00:00 19.7 13 Este 29 Sudeste 0 -- -- 16
2019-02-11 14:00:00 20.1 14 Sudeste 30 Sudeste 0 -- -- 16
2019-02-11 13:00:00 19.7 16 Sudeste 27 Sudeste 0 -- -- 18
2019-02-11 12:00:00 18.9 7 Este 33 Sudeste 0 -- -- 24
2019-02-11 11:00:00 18.4 9 Sudeste 27 Sudeste 0 -- -- 21
2019-02-11 10:00:00 17.2 6 Este 23 Sudeste 0 -- -- 25
2019-02-11 09:00:00 15.8 8 Este 35 Sudeste 0 -- -- 29
2019-02-11 08:00:00 13.5 7 Nordeste 21 Nordeste 0 -- -- 34
2019-02-11 07:00:00 14.4 10 Este 30 Sudeste 0 -- -- 29
2019-02-11 06:00:00 15 11 Este 44 Sudeste 0 -- -- 25
2019-02-11 05:00:00 15.3 15 Este 45 Sudeste 0 -- -- 21
2019-02-11 04:00:00 15.5 13 Sudeste 32 Sudeste 0 -- -- 21
2019-02-11 03:00:00 15.7 10 Nordeste 29 Este 0 -- -- 18
2019-02-11 02:00:00 15.6 9 Nordeste 27 Sudeste 0 -- -- 17
2019-02-11 01:00:00 15.7 9 Este 32 Sudeste 0 -- -- 17
2019-02-11 00:00:00 15 5 Oeste 21 Nordeste 0 -- -- 17
2019-02-10 23:00:00 14.9 5 Nordeste 21 Nordeste 0 -- -- 17
2019-02-10 22:00:00 14.6 7 Norte 20 Este 0 -- -- 20
2019-02-10 21:00:00 14 5 Norte 23 Este 0 -- -- 23
2019-02-10 20:00:00 14.1 8 Nordeste 23 Nordeste 0 -- -- 22
2019-02-10 19:00:00 14.2 6 Este 23 Este 0 -- -- 26
2019-02-10 18:00:00 15.8 8 Este 27 Nordeste 0 -- -- 20
2019-02-10 17:00:00 16.8 10 Sudeste 28 Sudeste 0 -- -- 22
2019-02-10 16:00:00 17 12 Este 35 Este 0 -- -- 24
2019-02-10 15:00:00 16.7 15 Este 41 Sudeste 0 -- -- 30
2019-02-10 14:00:00 16.7 18 Sudeste 42 Sudeste 0 -- -- 28
2019-02-10 13:00:00 16.7 12 Sudeste 46 Sudeste 0 -- -- 28
2019-02-10 12:00:00 16.5 21 Sudeste 47 Sudeste 0 -- -- 28
2019-02-10 11:00:00 16.2 23 Sudeste 44 Sudeste 0 -- -- 26
2019-02-10 10:00:00 16.7 14 Sudeste 37 Este 0 -- -- 22
2019-02-10 09:00:00 15.6 10 Este 28 Sudeste 0 -- -- 21
2019-02-10 08:00:00 13.9 6 Este 21 Sudeste 0 -- -- 23
2019-02-10 07:00:00 13.2 9 Sur 22 Sudeste 0 -- -- 24
2019-02-10 06:00:00 12.4 5 Noroeste 18 Sur 0 -- -- 26
2019-02-10 05:00:00 11.2 4 Nordeste 14 Nordeste 0 -- -- 27
2019-02-10 04:00:00 10.1 4 Nordeste 12 Este 0 -- -- 31
2019-02-10 03:00:00 9.4 3 Nordeste 15 Nordeste 0 -- -- 33
2019-02-10 02:00:00 8.1 6 Norte 12 Norte 0 -- -- 37
2019-02-10 01:00:00 7.8 6 Norte 10 Norte 0 -- -- 38
2019-02-10 00:00:00 8.2 8 Norte 10 Norte 0 -- -- 37
2019-02-09 23:00:00 8.5 7 Norte 10 Norte 0 -- -- 37
2019-02-09 22:00:00 9 6 Norte 11 Norte 0 -- -- 35
2019-02-09 21:00:00 9.2 7 Norte 10 Norte 0 -- -- 34
2019-02-09 20:00:00 9.6 8 Norte 10 Norte 0 -- -- 35
2019-02-09 19:00:00 12.9 6 Norte 8 Norte 0 -- -- 32
2019-02-09 18:00:00 16.6 2 Este 10 Este 0 -- -- 21
2019-02-09 17:00:00 16.2 7 Este 16 Sudeste 0 -- -- 25
2019-02-09 16:00:00 17.5 7 Sudeste 18 Sur 0 -- -- 20
2019-02-09 15:00:00 17.9 8 Sur 18 Sur 0 -- -- 24
2019-02-09 14:00:00 17.2 8 Sudeste 18 Sudeste 0 -- -- 40
2019-02-09 13:00:00 16.8 7 Sudeste 15 Este 0 -- -- 41
2019-02-09 12:00:00 16.4 7 Este 13 Sudeste 0 -- -- 59
2019-02-09 11:00:00 17.8 6 Sudeste 11 Sudeste 0 -- -- 49
2019-02-09 10:00:00 17.2 3 Sudeste 8 Sudeste 0 -- -- 12
2019-02-09 09:00:00 10.3 3 Norte 11 Norte 0 -- -- 35
2019-02-09 08:00:00 6.4 9 Norte 13 Norte 0 -- -- 27
2019-02-09 07:00:00 6.8 8 Norte 14 Norte 0 -- -- 28
2019-02-09 06:00:00 7.1 9 Norte 14 Norte 0 -- -- 28
2019-02-09 05:00:00 6.9 9 Norte 12 Norte 0 -- -- 29
2019-02-09 04:00:00 7.2 9 Norte 13 Norte 0 -- -- 27
2019-02-09 03:00:00 7.3 9 Norte 13 Norte 0 -- -- 28
2019-02-09 02:00:00 7.5 8 Norte 10 Norte 0 -- -- 26
2019-02-09 01:00:00 7.7 8 Norte 10 Noroeste 0 -- -- 27
2019-02-09 00:00:00 8 8 Norte 10 Norte 0 -- -- 27
2019-02-08 23:00:00 8.6 7 Norte 13 Norte 0 -- -- 26
2019-02-08 22:00:00 8.7 6 Norte 14 Norte 0 -- -- 26
2019-02-08 21:00:00 8.9 8 Norte 14 Norte 0 -- -- 24
2019-02-08 20:00:00 8.9 5 Norte 12 Norte 0 -- -- 30
2019-02-08 19:00:00 10.2 5 Norte 9 Norte 0 -- -- 36
2019-02-08 18:00:00 14.6 3 Sur 12 Este 0 -- -- 78
2019-02-08 17:00:00 14.7 5 Sudeste 11 Sudeste 0 -- -- 77
2019-02-08 16:00:00 13.2 8 Este 14 Este 0 -- -- 86
2019-02-08 15:00:00 12.2 6 Este 14 Nordeste 0 -- -- 83
2019-02-08 14:00:00 12.5 6 Este 17 Sudeste 0 -- -- 84
2019-02-08 13:00:00 14.3 8 Sudeste 18 Sudeste 0 -- -- 75
2019-02-08 12:00:00 15.6 7 Sudeste 15 Sudeste 0 -- -- 70
2019-02-08 11:00:00 16 9 Sudeste 14 Sudeste 0 -- -- 63
2019-02-08 10:00:00 17.2 5 Sudeste 10 Este 0 -- -- 28
2019-02-08 09:00:00 10.2 5 Norte 10 Norte 0 -- -- 37
2019-02-08 08:00:00 6.3 10 Norte 12 Norte 0 -- -- 28
2019-02-08 07:00:00 6.4 9 Norte 13 Norte 0 -- -- 29
2019-02-08 06:00:00 6.7 8 Norte 14 Norte 0 -- -- 27
2019-02-08 05:00:00 6.7 8 Norte 11 Noroeste 0 -- -- 26
2019-02-08 04:00:00 6.8 9 Norte 12 Norte 0 -- -- 27
2019-02-08 03:00:00 6.6 7 Norte 12 Norte 0 -- -- 30
2019-02-08 02:00:00 7.2 8 Norte 11 Norte 0 -- -- 28
2019-02-08 01:00:00 7.2 8 Norte 12 Norte 0 -- -- 28
2019-02-08 00:00:00 7.4 8 Norte 11 Norte 0 -- -- 26
2019-02-07 23:00:00 7.6 7 Norte 10 Norte 0 -- -- 25
2019-02-07 22:00:00 7.8 7 Norte 11 Norte 0 -- -- 26
2019-02-07 21:00:00 7.9 8 Norte 14 Noroeste 0 -- -- 26
2019-02-07 20:00:00 8.7 8 Norte 11 Norte 0 -- -- 27
2019-02-07 19:00:00 11.5 7 Norte 11 Nordeste 0 -- -- 29
2019-02-07 18:00:00 15.9 4 Nordeste 14 Este 0 -- -- 37
2019-02-07 17:00:00 15.3 7 Sudeste 15 Este 0 -- -- 71
2019-02-07 16:00:00 15.3 9 Este 18 Sudeste 0 -- -- 72
2019-02-07 15:00:00 14.8 9 Este 18 Sudeste 0 -- -- 61
2019-02-07 14:00:00 15.3 10 Este 25 Sudeste 0 -- -- 42
2019-02-07 13:00:00 15.5 12 Este 24 Sudeste 0 -- -- 34
2019-02-07 12:00:00 15.5 11 Este 18 Este 0 -- -- 43
2019-02-07 11:00:00 15.3 11 Este 19 Este 0 -- -- 51
2019-02-07 10:00:00 15.4 10 Este 22 Sudeste 0 -- -- 29
2019-02-07 09:00:00 12.1 5 Nordeste 15 Nordeste 0 -- -- 29
2019-02-07 08:00:00 6.3 7 Norte 12 Norte 0 -- -- 37
2019-02-07 07:00:00 6.4 7 Norte 14 Norte 0 -- -- 36
2019-02-07 06:00:00 7.1 7 Norte 17 Nordeste 0 -- -- 35
2019-02-07 05:00:00 8.6 6 Norte 19 Noroeste 0 -- -- 31
2019-02-07 04:00:00 11.1 4 Nordeste 23 Nordeste 0 -- -- 26
2019-02-07 03:00:00 11.9 7 Norte 26 Noroeste 0 -- -- 21
2019-02-07 02:00:00 12.3 7 Norte 21 Norte 0 -- -- 21
2019-02-07 01:00:00 12.4 8 Nordeste 30 Norte 0 -- -- 19
2019-02-07 00:00:00 12 10 Norte 28 Nordeste 0 -- -- 22
2019-02-06 23:00:00 11.5 7 Nordeste 19 Este 0 -- -- 24
2019-02-06 22:00:00 11.4 9 Nordeste 22 Nordeste 0 -- -- 24
2019-02-06 21:00:00 12.1 6 Norte 27 Este 0 -- -- 17
2019-02-06 20:00:00 12.5 10 Nordeste 33 Este 0 -- -- 15
2019-02-06 19:00:00 12.5 9 Nordeste 26 Norte 0 -- -- 17
2019-02-06 18:00:00 14.1 8 Nordeste 25 Este 0 -- -- 19
2019-02-06 17:00:00 14.8 7 Este 27 Este 0 -- -- 20
2019-02-06 16:00:00 14.4 14 Este 35 Sudeste 0 -- -- 26
2019-02-06 15:00:00 14.8 15 Sudeste 44 Sudeste 0 -- -- 20
2019-02-06 14:00:00 15.1 19 Sudeste 49 Este 0 -- -- 25
2019-02-06 13:00:00 14.4 15 Este 39 Sudeste 0 -- -- 41
2019-02-06 12:00:00 14.2 14 Sudeste 34 Sudeste 0 -- -- 48
2019-02-06 11:00:00 14.3 15 Sudeste 34 Sudeste 0 -- -- 30
2019-02-06 10:00:00 13.4 12 Sudeste 31 Sudeste 0 -- -- 42
2019-02-06 09:00:00 12.5 10 Sudeste 33 Sudeste 0 -- -- 42
2019-02-06 08:00:00 10.7 10 Este 26 Sudeste 0 -- -- 48
2019-02-06 07:00:00 10.8 5 Sudeste 22 Sudeste 0 -- -- 38
2019-02-06 06:00:00 11.2 8 Este 30 Este 0 -- -- 30
2019-02-06 05:00:00 11.8 9 Este 32 Sudeste 0 -- -- 25
2019-02-06 04:00:00 12 11 Sudeste 31 Sudeste 0 -- -- 21
2019-02-06 03:00:00 11.7 10 Sudeste 22 Sudeste 0 -- -- 19
2019-02-06 02:00:00 11.5 6 Este 22 Nordeste 0 -- -- 21
2019-02-06 01:00:00 10.6 5 Nordeste 19 Nordeste 0 -- -- 23
2019-02-06 00:00:00 11.3 8 Nordeste 23 Este 0 -- -- 17
2019-02-05 23:00:00 11.5 6 Norte 27 Norte 0 -- -- 19
2019-02-05 22:00:00 11.7 8 Norte 24 Este 0 -- -- 15
2019-02-05 21:00:00 11.6 8 Nordeste 27 Nordeste 0 -- -- 14
2019-02-05 20:00:00 11.5 8 Nordeste 22 Sudeste 0 -- -- 16
2019-02-05 19:00:00 11.3 7 Norte 18 Norte 0 -- -- 23
2019-02-05 18:00:00 12.8 9 Nordeste 23 Este 0 -- -- 25
2019-02-05 17:00:00 13.8 12 Este 28 Este 0 -- -- 27
2019-02-05 16:00:00 14.3 12 Este 27 Este 0 -- -- 35
2019-02-05 15:00:00 14.6 13 Este 33 Sudeste 0 -- -- 31
2019-02-05 14:00:00 14.5 17 Este 32 Este 0 -- -- 35
2019-02-05 13:00:00 14.1 14 Este 36 Este 0 -- -- 46
2019-02-05 12:00:00 14.2 20 Sudeste 34 Sudeste 0 -- -- 36
2019-02-05 11:00:00 12.8 16 Este 35 Sudeste 0 -- -- 68
2019-02-05 10:00:00 12.4 9 Este 21 Sudeste 0 -- -- 65
2019-02-05 09:00:00 11.9 7 Este 28 Este 0 -- -- 60
2019-02-05 08:00:00 12.4 16 Sudeste 41 Este 0 -- -- 34
2019-02-05 07:00:00 12.1 12 Este 33 Este 0 -- -- 46
2019-02-05 06:00:00 11.8 8 Este 37 Este 0 -- -- 58
2019-02-05 05:00:00 12.2 12 Este 33 Este 0 -- -- 49
2019-02-05 04:00:00 12.3 12 Este 30 Este 0 -- -- 52
2019-02-05 03:00:00 12.5 10 Este 30 Sudeste 0 -- -- 47
2019-02-05 02:00:00 13 13 Este 28 Este 0 -- -- 44
2019-02-05 01:00:00 13.1 11 Este 25 Este 0 -- -- 37
2019-02-05 00:00:00 13 9 Este 23 Nordeste 0 -- -- 37
2019-02-04 23:00:00 11.8 6 Este 23 Sudeste 0 -- -- 40
2019-02-04 22:00:00 10.1 6 Nordeste 14 Norte 0 -- -- 54
2019-02-04 21:00:00 9.5 5 Norte 19 Nordeste 0 -- -- 64
2019-02-04 20:00:00 10.4 6 Nordeste 16 Este 0 -- -- 65
2019-02-04 19:00:00 11.7 5 Nordeste 12 Norte 0 -- -- 54
2019-02-04 18:00:00 14 5 Este 13 Este 0 -- -- 50
2019-02-04 17:00:00 15 6 Este 15 Nordeste 0 -- -- 48
2019-02-04 16:00:00 16.1 7 Este 17 Este 0 -- -- 42
2019-02-04 15:00:00 15.9 8 Este 18 Este 0 -- -- 49
2019-02-04 14:00:00 17.1 8 Este 25 Sudeste 0 -- -- 49
2019-02-04 13:00:00 16.6 9 Este 25 Este 0 -- -- 46
2019-02-04 12:00:00 14.4 8 Sudeste 17 Sudeste 0 -- -- 77
2019-02-04 11:00:00 13.4 10 Sudeste 15 Sudeste 0 -- -- 78
2019-02-04 10:00:00 12.5 7 Este 19 Sudeste 0 -- -- 79
2019-02-04 09:00:00 11.1 8 Este 18 Sudeste 0 -- -- 77
2019-02-04 08:00:00 8.3 6 Norte 18 Norte 0 -- -- 56
2019-02-04 07:00:00 8.7 5 Norte 19 Norte 0 -- -- 57
2019-02-04 06:00:00 10.7 6 Nordeste 21 Nordeste 0 -- -- 46
2019-02-04 05:00:00 10.8 8 Norte 26 Este 0 -- -- 51
2019-02-04 04:00:00 11.5 6 Nordeste 28 Este 0 -- -- 44
2019-02-04 03:00:00 10.9 8 Nordeste 25 Este 0 -- -- 43
2019-02-04 02:00:00 9.4 6 Nordeste 14 Norte 0 -- -- 55
2019-02-04 01:00:00 9.3 7 Norte 21 Noroeste 0 -- -- 56
2019-02-04 00:00:00 9.9 7 Norte 20 Norte 0 -- -- 51
2019-02-03 23:00:00 9.7 6 Norte 22 Nordeste 0 -- -- 56
2019-02-03 22:00:00 7.6 5 Este 15 Norte 0 -- -- 78
2019-02-03 21:00:00 9.4 7 Este 29 Norte 0 -- -- 86
2019-02-03 20:00:00 9.6 9 Nordeste 35 Norte 0 -- -- 86
2019-02-03 19:00:00 9.6 16 Norte 35 Norte 0 -- -- 81
2019-02-03 18:00:00 11.5 12 Norte 30 Norte 0 -- -- 77
2019-02-03 17:00:00 11.9 10 Nordeste 29 Este 0 -- -- 77
2019-02-03 16:00:00 12.1 10 Nordeste 32 Noroeste 0 -- -- 79
2019-02-03 15:00:00 12.8 9 Nordeste 39 Norte 0 -- -- 76
2019-02-03 14:00:00 12.2 12 Nordeste 34 Noroeste 0 -- -- 81
2019-02-03 13:00:00 11.8 11 Nordeste 37 Norte 0 -- -- 83
2019-02-03 12:00:00 12.8 10 Nordeste 30 Norte 0 -- -- 71
2019-02-03 11:00:00 12.1 12 Nordeste 45 Norte 0 -- -- 78
2019-02-03 10:00:00 10.6 13 Norte 35 Noroeste 0 -- -- 82
2019-02-03 09:00:00 9.9 11 Nordeste 36 Nordeste 0 -- -- 84
2019-02-03 08:00:00 8.7 6 Nordeste 26 Nordeste 0 -- -- 89
2019-02-03 07:00:00 8.8 9 Nordeste 32 Norte 0 -- -- 90
2019-02-03 06:00:00 9.2 9 Nordeste 36 Nordeste 0 -- -- 92
2019-02-03 05:00:00 8.7 10 Nordeste 32 Nordeste 0 -- -- 91
2019-02-03 04:00:00 8.8 10 Nordeste 33 Nordeste 0 -- -- 92
2019-02-03 03:00:00 8.2 9 Este 26 Este 0 -- -- 89
2019-02-03 02:00:00 8.5 12 Este 31 Este 0 -- -- 91
2019-02-03 01:00:00 8.6 15 Este 35 Nordeste 0 -- -- 91
2019-02-03 00:00:00 8.6 12 Este 36 Norte 0 -- -- 88
2019-02-02 23:00:00 8.5 11 Este 34 Este 0 -- -- 89
2019-02-02 22:00:00 8.7 8 Este 31 Nordeste 0 -- -- 89
2019-02-02 21:00:00 8.7 10 Este 25 Sudeste 0 -- -- 92
2019-02-02 20:00:00 8.6 8 Nordeste 25 Noroeste 0 -- -- 89
2019-02-02 19:00:00 9.3 10 Nordeste 29 Nordeste 0 -- -- 89
2019-02-02 18:00:00 10.5 10 Nordeste 32 Nordeste 0 -- -- 81
2019-02-02 17:00:00 11.6 11 Nordeste 28 Este 0 -- -- 78
2019-02-02 16:00:00 12.7 12 Nordeste 32 Nordeste 0 -- -- 79
2019-02-02 15:00:00 13.2 11 Nordeste 42 Noroeste 0 -- -- 77
2019-02-02 14:00:00 12.8 8 Nordeste 29 Nordeste 0 -- -- 78
2019-02-02 13:00:00 11.8 10 Nordeste 24 Norte 0 -- -- 82
2019-02-02 12:00:00 11 9 Este 29 Norte 0 -- -- 90
2019-02-02 11:00:00 11.7 9 Nordeste 29 Norte 0 -- -- 87
2019-02-02 10:00:00 10.4 13 Norte 29 Nordeste 0 -- -- 97
2019-02-02 09:00:00 10.3 8 Nordeste 24 Nordeste 0.2 -- -- 99
2019-02-02 08:00:00 10.2 10 Norte 26 Norte 0.2 -- -- 98
2019-02-02 07:00:00 10.6 6 Norte 22 Nordeste 0.2 -- -- 99
2019-02-02 06:00:00 10.9 9 Norte 25 Norte 0.2 -- -- 99
2019-02-02 05:00:00 11.4 10 Norte 25 Noroeste 0.4 -- -- 98
2019-02-02 04:00:00 11.5 7 Nordeste 20 Este 0.6 -- -- 98
2019-02-02 03:00:00 11.3 9 Norte 21 Norte 0.4 -- -- 97
2019-02-02 02:00:00 12 4 Nordeste 20 Norte 1.2 -- -- 98
2019-02-02 01:00:00 11.7 9 Norte 26 Norte 0 -- -- 94
2019-02-02 00:00:00 11.3 7 Nordeste 22 Norte 0 -- -- 94
2019-02-01 23:00:00 11.5 5 Norte 18 Este 0 -- -- 93
2019-02-01 22:00:00 11 4 Norte 28 Noroeste 0 -- -- 89
2019-02-01 21:00:00 11.5 6 Nordeste 23 Nordeste 0.2 -- -- 95
2019-02-01 20:00:00 11.8 5 Nordeste 17 Norte 0 -- -- 96
2019-02-01 19:00:00 11.8 7 Este 32 Sudeste 0 -- -- 95
2019-02-01 18:00:00 12.4 10 Sudeste 28 Norte 0 -- -- 89
2019-02-01 17:00:00 13.5 8 Sudoeste 31 Noroeste 0 -- -- 84
2019-02-01 16:00:00 14.5 12 Nordeste 34 Norte 0 -- -- 76
2019-02-01 15:00:00 15.9 8 Este 39 Norte 0 -- -- 72
2019-02-01 14:00:00 15.3 10 Norte 32 Noroeste 0 -- -- 74
2019-02-01 13:00:00 14.9 8 Nordeste 30 Norte 0 -- -- 73
2019-02-01 12:00:00 14.7 8 Sudeste 29 Norte 0 -- -- 68
2019-02-01 11:00:00 14.4 9 Sudeste 14 Sur 0 -- -- 68
2019-02-01 10:00:00 12.8 5 Noroeste 17 Nordeste 0 -- -- 70
2019-02-01 09:00:00 10.7 0 Calma 13 Sudeste 0 -- -- 79
2019-02-01 08:00:00 8.7 4 Sudeste 14 Sudoeste 0 -- -- 89
2019-02-01 07:00:00 8.3 2 Oeste 18 Sudeste 0 -- -- 90
2019-02-01 06:00:00 8.6 2 Sudeste 16 Sur 0 -- -- 89
2019-02-01 05:00:00 8.8 10 Sudeste 21 Este 0 -- -- 90
2019-02-01 04:00:00 8.2 8 Nordeste 18 Nordeste 0 -- -- 92
2019-02-01 03:00:00 6.6 2 Norte 12 Oeste 0 -- -- 96
2019-02-01 02:00:00 7.1 2 Noroeste 11 Oeste 0 -- -- 96
2019-02-01 01:00:00 7.3 2 Norte 7 Este 0 -- -- 97
2019-02-01 00:00:00 7.4 2 Norte 12 Norte 0 -- -- 95
2019-01-31 23:00:00 8 3 Sur 17 Sudoeste 0 -- -- 94
2019-01-31 22:00:00 8.3 3 Oeste 9 Sudoeste 0 -- -- 95
2019-01-31 21:00:00 7.3 3 Noroeste 6 Norte 0 -- -- 91
2019-01-31 20:00:00 8.8 4 Noroeste 13 Noroeste 0 -- -- 87
2019-01-31 19:00:00 9.7 8 Noroeste 17 Noroeste 0 -- -- 87
2019-01-31 18:00:00 10.9 8 Oeste 17 Oeste 0 -- -- 81
2019-01-31 17:00:00 11.6 8 Noroeste 15 Noroeste 0 -- -- 81
2019-01-31 16:00:00 12 6 Sur 15 Sudeste 0 -- -- 87
2019-01-31 15:00:00 12 8 Sudeste 21 Noroeste 0 -- -- 89
2019-01-31 14:00:00 12.8 7 Oeste 24 Noroeste 0 -- -- 82
2019-01-31 13:00:00 13.4 6 Noroeste 18 Sudoeste 0 -- -- 78
2019-01-31 12:00:00 12.3 7 Sur 20 Oeste 0 -- -- 81
2019-01-31 11:00:00 11.1 7 Sur 14 Sur 0 -- -- 94
2019-01-31 10:00:00 10.5 5 Sudeste 10 Sur 0 -- -- 93
2019-01-31 09:00:00 8 3 Nordeste 12 Norte 0 -- -- 100
2019-01-31 08:00:00 7.9 3 Oeste 8 Sudeste 0 -- -- 98
2019-01-31 07:00:00 8.3 2 Este 12 Sur 0 -- -- 99
2019-01-31 06:00:00 8.6 4 Sudoeste 14 Sudeste 0 -- -- 98
2019-01-31 05:00:00 8.8 2 Sudoeste 6 Sur 0 -- -- 99
2019-01-31 04:00:00 8.7 2 Sudoeste 5 Oeste 0 -- -- 98
2019-01-31 03:00:00 9.3 3 Sudoeste 18 Noroeste 0 -- -- 98
2019-01-31 02:00:00 9.3 6 Este 17 Norte 0 -- -- 98
2019-01-31 01:00:00 8.6 7 Este 15 Este 0 -- -- 93
2019-01-31 00:00:00 8.1 4 Norte 13 Sur 0 -- -- 89
2019-01-30 23:00:00 7.7 4 Oeste 13 Este 0 -- -- 95
2019-01-30 22:00:00 9 6 Nordeste 17 Nordeste 0 -- -- 95
2019-01-30 21:00:00 8.6 4 Sudeste 20 Oeste 0 -- -- 88
2019-01-30 20:00:00 9.3 7 Este 23 Este 0 -- -- 90
2019-01-30 19:00:00 9.9 6 Sudoeste 20 Oeste 0 -- -- 87
2019-01-30 18:00:00 11.7 5 Sur 12 Sudeste 0 -- -- 86
2019-01-30 17:00:00 12.3 2 Sur 15 Sudeste 0 -- -- 86
2019-01-30 16:00:00 14.2 8 Sur 17 Sur 0 -- -- 79
2019-01-30 15:00:00 14.4 9 Sudeste 18 Norte 0 -- -- 78
2019-01-30 14:00:00 14.6 7 Norte 21 Norte 0 -- -- 73
2019-01-30 13:00:00 14.3 6 Sudoeste 22 Este 0 -- -- 71
2019-01-30 12:00:00 13.9 5 Este 22 Sudeste 0 -- -- 75
2019-01-30 11:00:00 13.6 10 Este 17 Sudeste 0 -- -- 82
2019-01-30 10:00:00 12.8 8 Este 26 Noroeste 0 -- -- 77
2019-01-30 09:00:00 9.5 9 Norte 25 Nordeste 0 -- -- 89
2019-01-30 08:00:00 8.7 10 Este 34 Este 0 -- -- 96
2019-01-30 07:00:00 9.1 13 Este 28 Noroeste 0 -- -- 96
2019-01-30 06:00:00 8.9 4 Norte 23 Nordeste 0 -- -- 87
2019-01-30 05:00:00 9.4 4 Nordeste 23 Noroeste 0 -- -- 78
2019-01-30 04:00:00 9.6 8 Noroeste 30 Norte 0 -- -- 80
2019-01-30 03:00:00 9.8 4 Oeste 22 Este 0 -- -- 87
2019-01-30 02:00:00 12.2 16 Este 31 Este 0 -- -- 57
2019-01-30 01:00:00 7.2 6 Norte 9 Noroeste 0 -- -- 60
2019-01-30 00:00:00 7.1 4 Norte 8 Nordeste 0 -- -- 69
2019-01-29 23:00:00 7.2 4 Noroeste 12 Oeste 0 -- -- 74
2019-01-29 22:00:00 9 3 Norte 12 Noroeste 0 -- -- 85
2019-01-29 21:00:00 9.8 3 Sudeste 17 Este 0 -- -- 94
2019-01-29 20:00:00 11.8 8 Nordeste 21 Nordeste 0 -- -- 61
2019-01-29 19:00:00 10.9 3 Oeste 13 Nordeste 0 -- -- 91
2019-01-29 18:00:00 12.2 6 Sudeste 14 Oeste 0 -- -- 89
2019-01-29 17:00:00 12.6 6 Sur 17 Este 0 -- -- 88
2019-01-29 16:00:00 12.9 5 Sudeste 23 Nordeste 0 -- -- 84
2019-01-29 15:00:00 13.8 9 Este 19 Sudeste 0 -- -- 82
2019-01-29 14:00:00 14.1 12 Este 27 Este 0 -- -- 76
2019-01-29 13:00:00 15 10 Sur 19 Sudeste 0 -- -- 72
2019-01-29 12:00:00 15.8 6 Sudeste 19 Nordeste 0 -- -- 62
2019-01-29 11:00:00 15.5 6 Sur 14 Sudeste 0 -- -- 72
2019-01-29 10:00:00 14.1 4 Sudeste 12 Sudeste 0 -- -- 74
2019-01-29 09:00:00 9.5 4 Norte 10 Norte 0 -- -- 60
2019-01-29 08:00:00 7.7 5 Norte 11 Norte 0 -- -- 47
2019-01-29 07:00:00 5.7 4 Norte 9 Norte 0 -- -- 55
2019-01-29 06:00:00 6.1 3 Norte 8 Noroeste 0 -- -- 56
2019-01-29 05:00:00 7 4 Norte 8 Norte 0 -- -- 50
2019-01-29 04:00:00 7 4 Nordeste 8 Nordeste 0 -- -- 51
2019-01-29 03:00:00 6.9 5 Noroeste 9 Norte 0 -- -- 55
2019-01-29 02:00:00 7.3 5 Norte 10 Norte 0 -- -- 53
2019-01-29 01:00:00 6.9 8 Norte 10 Norte 0 -- -- 56
2019-01-29 00:00:00 6.3 6 Norte 12 Noroeste 0 -- -- 61
2019-01-28 23:00:00 6.8 3 Este 8 Noroeste 0 -- -- 64
2019-01-28 22:00:00 7.3 4 Noroeste 9 Noroeste -- -- -- 61
2019-01-28 21:00:00 8.8 4 Noroeste 12 Norte 0 -- -- 61
2019-01-28 20:00:00 8.6 3 Noroeste 12 Noroeste 0 -- -- 65
2019-01-28 19:00:00 10.2 2 Sudoeste 7 Oeste 0 -- -- 78
2019-01-28 18:00:00 13.5 4 Sudoeste 10 Sur 0 -- -- 80
2019-01-28 17:00:00 13.5 4 Sudoeste 15 Sudeste 0 -- -- 82
2019-01-28 16:00:00 13.5 7 Este 16 Nordeste 0 -- -- 85
2019-01-28 15:00:00 13.2 8 Este 20 Sudeste 0 -- -- 83
2019-01-28 14:00:00 13 6 Este 18 Este 0 -- -- 83
2019-01-28 13:00:00 13.1 10 Este 22 Sudeste 0 -- -- 82
2019-01-28 12:00:00 13.4 7 Este 17 Este 0 -- -- 83
2019-01-28 11:00:00 13.5 6 Sudeste 15 Sudeste 0 -- -- 81
2019-01-28 10:00:00 11.4 5 Sur 22 Este 0 -- -- 92
2019-01-28 09:00:00 10.1 8 Nordeste 33 Nordeste 0 -- -- 100
2019-01-28 08:00:00 9.8 10 Nordeste 28 Nordeste 0 -- -- 98
2019-01-28 07:00:00 8.4 3 Este 15 Norte 0 -- -- 95
2019-01-28 06:00:00 9.9 9 Nordeste 25 Nordeste 0 -- -- 96
2019-01-28 05:00:00 9.7 6 Nordeste 20 Norte 0 -- -- 95
2019-01-28 04:00:00 9.3 8 Nordeste 22 Nordeste 0 -- -- 92
2019-01-28 03:00:00 9.8 9 Nordeste 25 Nordeste 0 -- -- 82
2019-01-28 02:00:00 8.2 4 Noroeste 26 Nordeste 0 -- -- 87
2019-01-28 01:00:00 10.1 10 Norte 31 Nordeste 0 -- -- 80
2019-01-28 00:00:00 10 10 Nordeste 33 Este 0 -- -- 80
2019-01-27 23:00:00 9.9 12 Nordeste 33 Norte 0 -- -- 96
2019-01-27 22:00:00 10.1 11 Este 30 Este 0 -- -- 92
2019-01-27 21:00:00 10.4 11 Este 28 Este 0 -- -- 77
2019-01-27 20:00:00 10.2 8 Nordeste 22 Nordeste 0 -- -- 74
2019-01-27 19:00:00 9.8 5 Nordeste 17 Norte 0 -- -- 88
2019-01-27 18:00:00 11.7 6 Nordeste 15 Este 0 -- -- 91
2019-01-27 17:00:00 11.4 6 Este 13 Este 0 -- -- 99
2019-01-27 16:00:00 12 7 Este 15 Este 0 -- -- 98
2019-01-27 15:00:00 12.1 5 Este 15 Sudeste 0 -- -- 98
2019-01-27 14:00:00 11.9 5 Este 20 Este 0 -- -- 96
2019-01-27 13:00:00 11.8 9 Sudeste 22 Sudeste 0 -- -- 95
2019-01-27 12:00:00 11.8 6 Sudeste 25 Sudeste 0 -- -- 94
2019-01-27 11:00:00 11.5 8 Nordeste 27 Sudeste 0 -- -- 98
2019-01-27 10:00:00 11.1 7 Este 22 Este 0 -- -- 95
2019-01-27 09:00:00 9.8 7 Este 14 Norte 0 -- -- 92
2019-01-27 08:00:00 6.2 4 Noroeste 9 Noroeste 0 -- -- 100
2019-01-27 07:00:00 6.2 4 Norte 12 Este 0 -- -- 100
2019-01-27 06:00:00 6.2 4 Norte 14 Norte 0 -- -- 100
2019-01-27 05:00:00 5.8 6 Norte 12 Norte 0.2 -- -- 100
2019-01-27 04:00:00 5.8 6 Norte 10 Norte 0 -- -- 100
2019-01-27 03:00:00 5.8 6 Norte 10 Norte 0 -- -- 100
2019-01-27 02:00:00 6.1 7 Norte 10 Norte 0 -- -- 100
2019-01-27 01:00:00 6.4 6 Norte 8 Norte 0 -- -- 100
2019-01-27 00:00:00 6.8 5 Norte 9 Norte 0 -- -- 100
2019-01-26 23:00:00 8 4 Noroeste 10 Norte 0 -- -- 100
2019-01-26 22:00:00 7.1 5 Norte 10 Norte 0 -- -- 99
2019-01-26 21:00:00 7.5 5 Norte 10 Norte 0 -- -- 98
2019-01-26 20:00:00 8.5 4 Norte 10 Nordeste 0 -- -- 96
2019-01-26 19:00:00 10.2 4 Norte 11 Nordeste 0 -- -- 98
2019-01-26 18:00:00 11 6 Este 12 Este 0 -- -- 97
2019-01-26 17:00:00 11.4 3 Este 6 Este 0 -- -- 96
2019-01-26 16:00:00 10.8 2 Este 13 Este 0.8 -- -- 98
2019-01-26 15:00:00 11.1 4 Nordeste 15 Sudeste 1.6 -- -- 98
2019-01-26 14:00:00 11 3 Este 8 Este 3 -- -- 94
2019-01-26 13:00:00 10.7 3 Noroeste 12 Sudeste 1.6 -- -- 90
2019-01-26 12:00:00 11.5 5 Sudeste 15 Sur 0 -- -- 92
2019-01-26 11:00:00 11.5 4 Sudoeste 18 Sudeste 0 -- -- 91
2019-01-26 10:00:00 12.2 9 Sudeste 19 Sudeste 0 -- -- 92
2019-01-26 09:00:00 10.1 4 Sudeste 9 Sudeste 0.2 -- -- 93
2019-01-26 08:00:00 7.6 5 Norte 7 Norte 0 -- -- 100
2019-01-26 07:00:00 7.7 6 Norte 9 Norte 0 -- -- 100
2019-01-26 06:00:00 7.4 5 Norte 8 Norte 0 -- -- 100
2019-01-26 05:00:00 7.1 5 Norte 8 Nordeste 0 -- -- 100
2019-01-26 04:00:00 7.2 3 Norte 9 Norte 0 -- -- 99
2019-01-26 03:00:00 8.5 3 Norte 9 Noroeste 0 -- -- 100
2019-01-26 02:00:00 8.7 4 Norte 8 Noroeste 0 -- -- 100
2019-01-26 01:00:00 8.6 5 Noroeste 9 Noroeste 0 -- -- 100
2019-01-26 00:00:00 8.2 6 Noroeste 9 Noroeste 0 -- -- 100
2019-01-25 23:00:00 8.6 6 Noroeste 8 Noroeste 0 -- -- 100
2019-01-25 22:00:00 7.9 5 Norte 8 Noroeste 0 -- -- 99
2019-01-25 21:00:00 8.6 6 Norte 8 Norte 0 -- -- 97
2019-01-25 20:00:00 9.8 4 Norte 6 Norte 0 -- -- 98
2019-01-25 19:00:00 10.2 0 Calma 9 Nordeste 0.2 -- -- 99
2019-01-25 18:00:00 10.2 6 Este 14 Sudeste 0.8 -- -- 98
2019-01-25 17:00:00 10.8 3 Este 13 Sudeste 0.6 -- -- 97
2019-01-25 16:00:00 10.9 8 Sudeste 13 Sudeste 0.2 -- -- 98
2019-01-25 15:00:00 11.4 5 Sudeste 18 Sudeste 0 -- -- 97
2019-01-25 14:00:00 11.4 8 Sudeste 22 Sudeste 0 -- -- 98
2019-01-25 13:00:00 11.6 6 Este 14 Sur 0 -- -- 93
2019-01-25 12:00:00 11.7 5 Este 15 Sudeste 0 -- -- 92
2019-01-25 11:00:00 11.6 6 Este 17 Sudeste 0 -- -- 88
2019-01-25 10:00:00 12.6 7 Este 18 Este 0 -- -- 77
2019-01-25 09:00:00 10.6 8 Este 15 Sudeste 0 -- -- 81
2019-01-25 08:00:00 7.9 3 Norte 6 Norte 0 -- -- 98
2019-01-25 07:00:00 7.4 4 Norte 6 Norte 0 -- -- 100
2019-01-25 06:00:00 6.1 5 Norte 7 Norte 0 -- -- 99
2019-01-25 05:00:00 5.9 5 Norte 9 Norte 0 -- -- 96
2019-01-25 04:00:00 7.1 6 Norte 8 Noroeste 0 -- -- 91
2019-01-25 03:00:00 9.1 3 Sudeste 13 Norte 0 -- -- 86
2019-01-25 02:00:00 7.6 3 Norte 11 Norte 0 -- -- 91
2019-01-25 01:00:00 7.9 4 Nordeste 22 Norte 0 -- -- 86
2019-01-25 00:00:00 8.5 6 Norte 22 Norte 0 -- -- 89
2019-01-24 23:00:00 8.1 8 Nordeste 19 Norte 0 -- -- 87
2019-01-24 22:00:00 8.8 4 Nordeste 12 Este 0 -- -- 92
2019-01-24 21:00:00 9.1 4 Nordeste 19 Este 0 -- -- 93
2019-01-24 20:00:00 9.2 5 Este 19 Nordeste 0 -- -- 95
2019-01-24 19:00:00 9.7 7 Nordeste 18 Norte 0 -- -- 94
2019-01-24 18:00:00 10 7 Nordeste 23 Este 0 -- -- 92
2019-01-24 17:00:00 10.5 7 Nordeste 19 Norte 0 -- -- 92
2019-01-24 16:00:00 10.3 4 Este 16 Nordeste 0.2 -- -- 96
2019-01-24 15:00:00 10.6 5 Este 15 Este 0.4 -- -- 98
2019-01-24 14:00:00 10.6 8 Este 14 Sudeste 0.4 -- -- 98
2019-01-24 13:00:00 10.3 4 Sudeste 10 Sudeste 0.4 -- -- 95
2019-01-24 12:00:00 10.2 2 Este 17 Este 0.4 -- -- 95
2019-01-24 11:00:00 10.1 8 Este 32 Sudeste 0 -- -- 94
2019-01-24 10:00:00 9.9 10 Nordeste 23 Nordeste 0.2 -- -- 92
2019-01-24 09:00:00 9.2 8 Nordeste 27 Este 0 -- -- 90
2019-01-24 08:00:00 8.6 8 Nordeste 31 Este 0 -- -- 90
2019-01-24 07:00:00 8.9 6 Norte 25 Norte 0 -- -- 89
2019-01-24 06:00:00 8.9 10 Nordeste 27 Nordeste 0 -- -- 86
2019-01-24 05:00:00 8.9 8 Nordeste 27 Este 0 -- -- 88
2019-01-24 04:00:00 8.8 6 Nordeste 21 Nordeste 0 -- -- 88
2019-01-24 03:00:00 8.7 6 Nordeste 25 Este 0 -- -- 87
2019-01-24 02:00:00 8.8 8 Nordeste 33 Nordeste 0 -- -- 90
2019-01-24 01:00:00 8.8 10 Nordeste 33 Este 0 -- -- 87
2019-01-24 00:00:00 8.5 8 Nordeste 26 Norte 0 -- -- 86
2019-01-23 23:00:00 7.9 9 Nordeste 26 Este 0 -- -- 86
2019-01-23 22:00:00 7.7 6 Nordeste 21 Nordeste 0 -- -- 85
2019-01-23 21:00:00 8.4 8 Nordeste 23 Este 0 -- -- 85
2019-01-23 20:00:00 8.5 5 Nordeste 24 Noroeste 0 -- -- 85
2019-01-23 19:00:00 8.8 7 Nordeste 27 Este 0 -- -- 86
2019-01-23 18:00:00 9.4 9 Nordeste 28 Norte 0 -- -- 87
2019-01-23 17:00:00 9.9 6 Norte 27 Sudeste 0 -- -- 85
2019-01-23 16:00:00 10.3 9 Este 38 Este 0 -- -- 84
2019-01-23 15:00:00 13.3 6 Este 27 Este 0 -- -- 69
2019-01-23 14:00:00 14 6 Nordeste 19 Noroeste 0 -- -- 64
2019-01-23 13:00:00 12.2 8 Nordeste 24 Norte 0 -- -- 72
2019-01-23 12:00:00 11.9 8 Noroeste 26 Norte 0 -- -- 76
2019-01-23 11:00:00 11.3 8 Este 46 Sudeste 0 -- -- 80
2019-01-23 10:00:00 10.4 13 Este 32 Sudeste 0 -- -- 83
2019-01-23 09:00:00 9 7 Nordeste 30 Nordeste 0 -- -- 88
2019-01-23 08:00:00 8.7 9 Nordeste 30 Nordeste 0 -- -- 88
2019-01-23 07:00:00 8.9 10 Nordeste 36 Norte 0 -- -- 93
2019-01-23 06:00:00 8.7 9 Nordeste 27 Este 0 -- -- 88
2019-01-23 05:00:00 8.9 9 Nordeste 31 Nordeste 0 -- -- 90
2019-01-23 04:00:00 9.2 9 Nordeste 28 Este 0 -- -- 90
2019-01-23 03:00:00 9 9 Nordeste 23 Nordeste 0 -- -- 88
2019-01-23 02:00:00 9.1 11 Nordeste 33 Nordeste 0 -- -- 90
2019-01-23 01:00:00 9.2 8 Nordeste 35 Nordeste 0 -- -- 92
2019-01-23 00:00:00 8.6 11 Nordeste 30 Este 0 -- -- 87
2019-01-22 23:00:00 8.6 7 Nordeste 27 Nordeste 0 -- -- 87
2019-01-22 22:00:00 9 6 Nordeste 30 Este 0 -- -- 89
2019-01-22 21:00:00 8.9 9 Nordeste 23 Nordeste 0 -- -- 88
2019-01-22 20:00:00 9.1 8 Nordeste 23 Nordeste 0 -- -- 87
2019-01-22 19:00:00 9.5 6 Nordeste 24 Este 0 -- -- 86
2019-01-22 18:00:00 10.2 7 Sudeste 23 Sudeste 0 -- -- 83
2019-01-22 17:00:00 10.7 6 Sudeste 24 Sudeste 0 -- -- 83
2019-01-22 16:00:00 11.4 14 Sudeste 36 Este 0 -- -- 76
2019-01-22 15:00:00 11.3 9 Sudeste 25 Sudeste 0 -- -- 78
2019-01-22 14:00:00 11 8 Oeste 35 Sur 0 -- -- 79
2019-01-22 13:00:00 10.5 15 Este 41 Este 0 -- -- 71
2019-01-22 12:00:00 11.4 17 Sudeste 39 Sudeste 0 -- -- 78
2019-01-22 11:00:00 10.9 19 Sudeste 49 Sudeste 0 -- -- 84
2019-01-22 10:00:00 10.4 15 Este 41 Sudeste 0 -- -- 84
2019-01-22 09:00:00 8.8 10 Nordeste 28 Norte 0 -- -- 84
2019-01-22 08:00:00 8.2 11 Nordeste 30 Nordeste 0 -- -- 90
2019-01-22 07:00:00 8.2 12 Nordeste 32 Nordeste 0.2 -- -- 94
2019-01-22 06:00:00 8.1 8 Norte 26 Norte 0 -- -- 93
2019-01-22 05:00:00 8.3 11 Nordeste 26 Este 0.8 -- -- 97
2019-01-22 04:00:00 7.8 6 Norte 25 Norte 0 -- -- 92
2019-01-22 03:00:00 7.9 9 Norte 24 Norte 0 -- -- 90
2019-01-22 02:00:00 7.9 9 Norte 28 Norte 0 -- -- 88
2019-01-22 01:00:00 7.8 8 Norte 26 Norte 0 -- -- 89
2019-01-22 00:00:00 8.5 8 Norte 20 Nordeste 0 -- -- 89
2019-01-21 23:00:00 8.3 8 Norte 18 Nordeste 0 -- -- 89
2019-01-21 22:00:00 8.9 5 Norte 23 Norte 0 -- -- 91
2019-01-21 21:00:00 8.5 9 Norte 31 Norte 0 -- -- 84
2019-01-21 20:00:00 8.5 11 Norte 35 Norte 0 -- -- 83
2019-01-21 19:00:00 9 10 Nordeste 24 Norte 0 -- -- 86
2019-01-21 18:00:00 10.1 10 Nordeste 26 Norte 0 -- -- 81
2019-01-21 17:00:00 11 10 Nordeste 27 Este 0 -- -- 80
2019-01-21 16:00:00 11 9 Nordeste 30 Nordeste 0 -- -- 83
2019-01-21 15:00:00 11.1 10 Nordeste 28 Este 0 -- -- 87
2019-01-21 14:00:00 11.6 8 Este 24 Norte 0 -- -- 84
2019-01-21 13:00:00 11.4 8 Este 27 Norte 0 -- -- 86
2019-01-21 12:00:00 11.2 8 Nordeste 27 Noroeste 0 -- -- 90
2019-01-21 11:00:00 10.9 11 Norte 32 Norte 0.4 -- -- 91
2019-01-21 10:00:00 10.2 10 Nordeste 31 Nordeste 0.4 -- -- 98
2019-01-21 09:00:00 10.3 7 Nordeste 21 Nordeste 0.4 -- -- 97
2019-01-21 08:00:00 10.2 8 Nordeste 28 Noroeste 0.8 -- -- 97
2019-01-21 07:00:00 9.9 6 Nordeste 27 Norte 0.2 -- -- 97
2019-01-21 06:00:00 8.5 5 Noroeste 18 Norte 0 -- -- 97
2019-01-21 05:00:00 8.4 6 Nordeste 18 Norte 0 -- -- 91
2019-01-21 04:00:00 8.7 3 Nordeste 17 Este 0 -- -- 95
2019-01-21 03:00:00 9.9 4 Este 18 Este 0 -- -- 94
2019-01-21 02:00:00 10.7 3 Sudoeste 11 Este 0.4 -- -- 97
2019-01-21 01:00:00 10.8 0 Calma 15 Este 0.4 -- -- 97
2019-01-21 00:00:00 10.9 4 Norte 29 Noroeste 0.4 -- -- 96
2019-01-20 23:00:00 10.6 7 Noroeste 24 Noroeste 0 -- -- 94
2019-01-20 22:00:00 10.8 5 Este 28 Norte 0 -- -- 91
2019-01-20 21:00:00 10.5 8 Norte 31 Noroeste 0 -- -- 92
2019-01-20 20:00:00 10.3 10 Norte 32 Noroeste 0 -- -- 89
2019-01-20 19:00:00 10.8 7 Norte 33 Norte 0 -- -- 87
2019-01-20 18:00:00 12 9 Norte 31 Nordeste 0 -- -- 80
2019-01-20 17:00:00 13.2 6 Sudeste 26 Este 0 -- -- 72
2019-01-20 16:00:00 14.5 8 Norte 34 Este 0 -- -- 67
2019-01-20 15:00:00 14.3 9 Sur 21 Sur 0 -- -- 75
2019-01-20 14:00:00 14.5 12 Sur 23 Sudeste 0 -- -- 73
2019-01-20 13:00:00 13 9 Sudeste 18 Este 0 -- -- 80
2019-01-20 12:00:00 12.3 8 Este 18 Este 0 -- -- 83
2019-01-20 11:00:00 10.8 3 Nordeste 17 Norte 0 -- -- 83
2019-01-20 10:00:00 9.7 3 Este 15 Este 0 -- -- 90
2019-01-20 09:00:00 8.7 4 Nordeste 26 Nordeste 0 -- -- 90
2019-01-20 08:00:00 8.6 6 Nordeste 21 Este 0 -- -- 94
2019-01-20 07:00:00 8.4 9 Nordeste 18 Norte 0 -- -- 97
2019-01-20 06:00:00 7.5 4 Nordeste 12 Nordeste 0 -- -- 97
2019-01-20 05:00:00 7.8 4 Norte 14 Norte 0 -- -- 95
2019-01-20 04:00:00 8.1 5 Norte 22 Nordeste 0 -- -- 96
2019-01-20 03:00:00 7.7 3 Nordeste 14 Este 0 -- -- 96
2019-01-20 02:00:00 8.7 6 Norte 20 Sudeste 0 -- -- 95
2019-01-20 01:00:00 9.3 9 Nordeste 22 Norte 0 -- -- 96
2019-01-20 00:00:00 9.7 9 Nordeste 22 Nordeste 0 -- -- 98
2019-01-19 23:00:00 10 5 Este 18 Este 0 -- -- 98
2019-01-19 22:00:00 9.6 5 Nordeste 22 Este 0 -- -- 92
2019-01-19 21:00:00 9.8 7 Nordeste 23 Nordeste 0 -- -- 83
2019-01-19 20:00:00 9.4 5 Nordeste 22 Este 0 -- -- 87
2019-01-19 19:00:00 10.1 10 Este 22 Este 0 -- -- 92
2019-01-19 18:00:00 11 6 Este 23 Norte 0 -- -- 92
2019-01-19 17:00:00 11.7 7 Nordeste 30 Norte 0 -- -- 89
2019-01-19 16:00:00 13 9 Este 22 Norte 0 -- -- 82
2019-01-19 15:00:00 13.7 7 Nordeste 21 Este 0 -- -- 78
2019-01-19 14:00:00 12.9 8 Sudeste 21 Este 0 -- -- 85
2019-01-19 13:00:00 12.2 8 Nordeste 24 Norte 0 -- -- 86
2019-01-19 12:00:00 11.2 8 Este 27 Noroeste 0 -- -- 90
2019-01-19 11:00:00 12.3 9 Este 20 Este 0 -- -- 85
2019-01-19 10:00:00 12 8 Nordeste 22 Norte 0 -- -- 80
2019-01-19 09:00:00 10.5 7 Nordeste 22 Noroeste 0 -- -- 83
2019-01-19 08:00:00 8.9 6 Nordeste 27 Noroeste 0 -- -- 93
2019-01-19 07:00:00 8.9 8 Nordeste 27 Nordeste 0 -- -- 93
2019-01-19 06:00:00 8.6 9 Nordeste 27 Norte 0 -- -- 92
2019-01-19 05:00:00 9.1 6 Nordeste 19 Nordeste 0 -- -- 97
2019-01-19 04:00:00 8.5 6 Norte 23 Norte 0 -- -- 91
2019-01-19 03:00:00 8.7 11 Norte 27 Norte 0 -- -- 86
2019-01-19 02:00:00 8.8 5 Este 30 Norte 0 -- -- 90
2019-01-19 01:00:00 8.4 10 Norte 22 Norte 0 -- -- 89
2019-01-19 00:00:00 8.5 6 Nordeste 24 Este 0 -- -- 90